Terminal Aerodrome Forecast
Issued by NWS Mt. Holly, NJ

Home | Current Version | Previous Version | Text Only | Print | Product List | Glossary On
Versions: 1 2 3 4 5 6 7 8 9 10 11 12 13 14 15 16 17 18 19
000
FTUS41 KPHI 011700
TAFILG
TAF
KILG 011720Z 0118/0218 01007KT P6SM BKN035
      TEMPO 0122/0202 BKN025
     FM020200 36005KT P6SM BKN020
     FM021400 02008KT P6SM BKN030
     FM021600 02009KT P6SM BKN035=

USA.gov is the U.S. government's official web portal to all federal, state and local government web resources and services.